sensor_id;sensor_type;location;lat;lon;timestamp;pressure;altitude;pressure_sealevel;temperature;humidity
58072;BME280;60383;46.626;18.866;2023-02-03T00:00:15;101182.44;;;2.60;73.89
58072;BME280;60383;46.626;18.866;2023-02-03T00:02:41;101176.84;;;2.47;73.94
58072;BME280;60383;46.626;18.866;2023-02-03T00:05:07;101179.69;;;2.44;74.30
58072;BME280;60383;46.626;18.866;2023-02-03T00:07:33;101175.00;;;2.48;74.14
58072;BME280;60383;46.626;18.866;2023-02-03T00:10:00;101183.88;;;2.34;74.64
58072;BME280;60383;46.626;18.866;2023-02-03T00:12:27;101183.53;;;2.40;74.49
58072;BME280;60383;46.626;18.866;2023-02-03T00:14:52;101185.44;;;2.22;74.78
58072;BME280;60383;46.626;18.866;2023-02-03T00:17:18;101182.88;;;2.03;75.54
58072;BME280;60383;46.626;18.866;2023-02-03T00:19:43;101178.72;;;2.29;74.62
58072;BME280;60383;46.626;18.866;2023-02-03T00:22:08;101185.28;;;2.41;74.40
58072;BME280;60383;46.626;18.866;2023-02-03T00:24:34;101181.03;;;2.53;73.37
58072;BME280;60383;46.626;18.866;2023-02-03T00:26:59;101169.31;;;2.52;73.62
58072;BME280;60383;46.626;18.866;2023-02-03T00:29:25;101184.16;;;2.45;73.77
58072;BME280;60383;46.626;18.866;2023-02-03T00:31:51;101181.09;;;2.51;73.51
58072;BME280;60383;46.626;18.866;2023-02-03T00:34:18;101184.13;;;2.13;74.15
58072;BME280;60383;46.626;18.866;2023-02-03T00:36:43;101187.78;;;2.12;74.60
58072;BME280;60383;46.626;18.866;2023-02-03T00:39:12;101185.63;;;2.35;74.17
58072;BME280;60383;46.626;18.866;2023-02-03T00:41:38;101185.47;;;2.86;71.92
58072;BME280;60383;46.626;18.866;2023-02-03T00:44:03;101193.75;;;2.67;72.59
58072;BME280;60383;46.626;18.866;2023-02-03T00:46:29;101198.44;;;2.79;72.11
58072;BME280;60383;46.626;18.866;2023-02-03T00:48:54;101186.94;;;2.44;72.63
58072;BME280;60383;46.626;18.866;2023-02-03T00:51:20;101189.50;;;2.47;72.95
58072;BME280;60383;46.626;18.866;2023-02-03T00:53:46;101201.72;;;2.70;72.29
58072;BME280;60383;46.626;18.866;2023-02-03T00:56:12;101194.81;;;2.48;72.84
58072;BME280;60383;46.626;18.866;2023-02-03T00:58:40;101199.00;;;2.54;72.70
58072;BME280;60383;46.626;18.866;2023-02-03T01:01:06;101201.00;;;2.50;73.03
58072;BME280;60383;46.626;18.866;2023-02-03T01:03:32;101217.91;;;2.38;73.35
58072;BME280;60383;46.626;18.866;2023-02-03T01:06:13;101215.38;;;2.51;73.51
58072;BME280;60383;46.626;18.866;2023-02-03T01:08:39;101217.59;;;2.76;72.55
58072;BME280;60383;46.626;18.866;2023-02-03T01:11:06;101228.66;;;2.55;72.88
58072;BME280;60383;46.626;18.866;2023-02-03T01:13:32;101232.09;;;2.26;73.87
58072;BME280;60383;46.626;18.866;2023-02-03T01:15:57;101244.03;;;2.21;74.70
58072;BME280;60383;46.626;18.866;2023-02-03T01:18:23;101228.56;;;2.07;75.19
58072;BME280;60383;46.626;18.866;2023-02-03T01:20:48;101237.81;;;2.03;75.71
58072;BME280;60383;46.626;18.866;2023-02-03T01:23:14;101239.22;;;2.11;75.98
58072;BME280;60383;46.626;18.866;2023-02-03T01:25:39;101239.97;;;2.46;74.67
58072;BME280;60383;46.626;18.866;2023-02-03T01:28:04;101243.72;;;2.44;73.82
58072;BME280;60383;46.626;18.866;2023-02-03T01:30:30;101245.56;;;2.43;74.31
58072;BME280;60383;46.626;18.866;2023-02-03T01:32:56;101250.09;;;2.43;74.63
58072;BME280;60383;46.626;18.866;2023-02-03T01:35:21;101260.03;;;2.26;74.76
58072;BME280;60383;46.626;18.866;2023-02-03T01:37:47;101256.97;;;2.32;74.93
58072;BME280;60383;46.626;18.866;2023-02-03T01:40:12;101260.53;;;2.33;75.33
58072;BME280;60383;46.626;18.866;2023-02-03T01:42:38;101264.50;;;2.43;74.99
58072;BME280;60383;46.626;18.866;2023-02-03T01:45:03;101249.94;;;2.46;75.16
58072;BME280;60383;46.626;18.866;2023-02-03T01:47:47;101247.63;;;2.38;75.03
58072;BME280;60383;46.626;18.866;2023-02-03T01:50:28;101253.03;;;2.38;75.03
58072;BME280;60383;46.626;18.866;2023-02-03T01:53:00;101247.03;;;2.49;74.97
58072;BME280;60383;46.626;18.866;2023-02-03T01:55:38;101258.41;;;2.55;74.66
58072;BME280;60383;46.626;18.866;2023-02-03T01:58:16;101257.00;;;2.48;74.53
58072;BME280;60383;46.626;18.866;2023-02-03T02:00:45;101253.41;;;2.48;74.96
58072;BME280;60383;46.626;18.866;2023-02-03T02:03:12;101255.72;;;2.55;74.30
58072;BME280;60383;46.626;18.866;2023-02-03T02:05:43;101247.59;;;2.55;74.01
58072;BME280;60383;46.626;18.866;2023-02-03T02:08:11;101262.44;;;2.31;75.11
58072;BME280;60383;46.626;18.866;2023-02-03T02:10:37;101260.66;;;2.47;74.90
58072;BME280;60383;46.626;18.866;2023-02-03T02:13:04;101266.88;;;2.49;75.33
58072;BME280;60383;46.626;18.866;2023-02-03T02:15:59;101262.50;;;2.47;75.21
58072;BME280;60383;46.626;18.866;2023-02-03T02:21:11;101263.13;;;2.52;74.84
58072;BME280;60383;46.626;18.866;2023-02-03T02:37:51;101255.41;;;2.44;75.37
58072;BME280;60383;46.626;18.866;2023-02-03T02:40:25;101251.34;;;2.19;75.91
58072;BME280;60383;46.626;18.866;2023-02-03T02:45:29;101250.13;;;2.09;76.31
58072;BME280;60383;46.626;18.866;2023-02-03T02:48:01;101257.81;;;2.50;75.52
58072;BME280;60383;46.626;18.866;2023-02-03T02:50:33;101259.47;;;2.19;75.82
58072;BME280;60383;46.626;18.866;2023-02-03T02:53:03;101264.16;;;2.16;76.82
58072;BME280;60383;46.626;18.866;2023-02-03T02:55:31;101265.34;;;2.10;76.79
58072;BME280;60383;46.626;18.866;2023-02-03T02:58:03;101256.91;;;2.16;76.82
58072;BME280;60383;46.626;18.866;2023-02-03T03:00:31;101261.53;;;2.48;75.87
58072;BME280;60383;46.626;18.866;2023-02-03T03:03:11;101265.53;;;2.40;76.02
58072;BME280;60383;46.626;18.866;2023-02-03T03:05:38;101259.81;;;2.47;76.09
58072;BME280;60383;46.626;18.866;2023-02-03T03:08:04;101261.84;;;2.42;76.39
58072;BME280;60383;46.626;18.866;2023-02-03T03:10:31;101264.13;;;2.33;76.21
58072;BME280;60383;46.626;18.866;2023-02-03T03:13:03;101270.38;;;2.18;76.73
58072;BME280;60383;46.626;18.866;2023-02-03T03:15:31;101262.03;;;2.05;77.18
58072;BME280;60383;46.626;18.866;2023-02-03T03:18:05;101272.03;;;2.20;77.10
58072;BME280;60383;46.626;18.866;2023-02-03T03:20:32;101266.25;;;2.11;77.34
58072;BME280;60383;46.626;18.866;2023-02-03T03:23:05;101267.78;;;2.32;76.15
58072;BME280;60383;46.626;18.866;2023-02-03T03:25:37;101266.25;;;2.11;77.08
58072;BME280;60383;46.626;18.866;2023-02-03T03:28:08;101271.25;;;2.34;76.71
58072;BME280;60383;46.626;18.866;2023-02-03T03:30:36;101270.88;;;2.24;76.62
58072;BME280;60383;46.626;18.866;2023-02-03T03:33:05;101267.47;;;2.21;76.43
58072;BME280;60383;46.626;18.866;2023-02-03T03:35:38;101267.16;;;2.27;76.82
58072;BME280;60383;46.626;18.866;2023-02-03T03:38:14;101267.09;;;2.29;76.17
58072;BME280;60383;46.626;18.866;2023-02-03T03:40:50;101270.22;;;2.03;76.81
58072;BME280;60383;46.626;18.866;2023-02-03T03:43:22;101267.66;;;2.18;76.54
58072;BME280;60383;46.626;18.866;2023-02-03T03:48:25;101267.44;;;2.05;77.39
58072;BME280;60383;46.626;18.866;2023-02-03T03:51:01;101263.06;;;2.02;77.65
58072;BME280;60383;46.626;18.866;2023-02-03T03:53:29;101265.72;;;1.86;77.88
58072;BME280;60383;46.626;18.866;2023-02-03T03:55:59;101266.44;;;1.72;78.58
58072;BME280;60383;46.626;18.866;2023-02-03T03:58:29;101262.06;;;1.70;79.03
58072;BME280;60383;46.626;18.866;2023-02-03T04:00:58;101270.09;;;1.54;79.44
58072;BME280;60383;46.626;18.866;2023-02-03T04:03:38;101260.94;;;1.39;79.73
58072;BME280;60383;46.626;18.866;2023-02-03T04:06:05;101255.69;;;1.36;79.74
58072;BME280;60383;46.626;18.866;2023-02-03T04:08:30;101257.13;;;1.43;80.26
58072;BME280;60383;46.626;18.866;2023-02-03T04:10:56;101256.41;;;1.39;79.97
58072;BME280;60383;46.626;18.866;2023-02-03T04:13:21;101259.69;;;1.46;79.30
58072;BME280;60383;46.626;18.866;2023-02-03T04:15:47;101254.66;;;1.38;79.39
58072;BME280;60383;46.626;18.866;2023-02-03T04:18:13;101248.66;;;1.51;79.44
58072;BME280;60383;46.626;18.866;2023-02-03T04:20:39;101242.22;;;1.53;78.88
58072;BME280;60383;46.626;18.866;2023-02-03T04:23:05;101247.75;;;1.50;78.91
58072;BME280;60383;46.626;18.866;2023-02-03T04:25:30;101233.16;;;1.72;78.05
58072;BME280;60383;46.626;18.866;2023-02-03T04:27:56;101237.44;;;1.58;78.25
58072;BME280;60383;46.626;18.866;2023-02-03T04:30:22;101237.03;;;1.66;78.10
58072;BME280;60383;46.626;18.866;2023-02-03T04:32:47;101243.81;;;1.75;77.55
58072;BME280;60383;46.626;18.866;2023-02-03T04:35:13;101241.81;;;1.61;78.04
58072;BME280;60383;46.626;18.866;2023-02-03T04:37:39;101242.91;;;1.74;77.16
58072;BME280;60383;46.626;18.866;2023-02-03T04:40:06;101239.34;;;1.74;77.27
58072;BME280;60383;46.626;18.866;2023-02-03T04:42:31;101235.22;;;1.67;77.71
58072;BME280;60383;46.626;18.866;2023-02-03T04:44:57;101232.84;;;1.61;77.50
58072;BME280;60383;46.626;18.866;2023-02-03T04:47:22;101229.84;;;1.67;77.63
58072;BME280;60383;46.626;18.866;2023-02-03T04:49:48;101232.22;;;1.73;76.71
58072;BME280;60383;46.626;18.866;2023-02-03T04:52:13;101239.56;;;1.52;77.56
58072;BME280;60383;46.626;18.866;2023-02-03T04:54:39;101242.50;;;1.30;77.82
58072;BME280;60383;46.626;18.866;2023-02-03T04:57:05;101246.16;;;1.28;78.96
58072;BME280;60383;46.626;18.866;2023-02-03T04:59:31;101251.41;;;1.32;78.53
58072;BME280;60383;46.626;18.866;2023-02-03T05:01:56;101254.59;;;1.40;78.42
58072;BME280;60383;46.626;18.866;2023-02-03T05:04:22;101262.84;;;1.19;78.87
58072;BME280;60383;46.626;18.866;2023-02-03T05:06:47;101268.75;;;1.08;79.39
58072;BME280;60383;46.626;18.866;2023-02-03T05:09:13;101273.56;;;1.02;79.41
58072;BME280;60383;46.626;18.866;2023-02-03T05:11:39;101278.81;;;1.05;79.14
58072;BME280;60383;46.626;18.866;2023-02-03T05:14:04;101290.22;;;0.92;79.97
58072;BME280;60383;46.626;18.866;2023-02-03T05:16:30;101291.38;;;0.87;80.35
58072;BME280;60383;46.626;18.866;2023-02-03T05:18:55;101288.47;;;0.91;80.27
58072;BME280;60383;46.626;18.866;2023-02-03T05:21:21;101289.84;;;1.00;80.20
58072;BME280;60383;46.626;18.866;2023-02-03T05:23:46;101286.53;;;0.93;80.44
58072;BME280;60383;46.626;18.866;2023-02-03T05:26:11;101284.53;;;0.99;80.63
58072;BME280;60383;46.626;18.866;2023-02-03T05:28:37;101275.31;;;1.03;80.34
58072;BME280;60383;46.626;18.866;2023-02-03T05:31:03;101276.78;;;1.10;80.20
58072;BME280;60383;46.626;18.866;2023-02-03T05:33:29;101267.44;;;0.98;79.81
58072;BME280;60383;46.626;18.866;2023-02-03T05:35:54;101274.22;;;1.07;80.00
58072;BME280;60383;46.626;18.866;2023-02-03T05:38:20;101269.19;;;1.18;80.49
58072;BME280;60383;46.626;18.866;2023-02-03T05:40:49;101261.94;;;1.19;80.69
58072;BME280;60383;46.626;18.866;2023-02-03T05:43:33;101259.81;;;1.43;77.81
58072;BME280;60383;46.626;18.866;2023-02-03T05:46:03;101258.47;;;1.34;78.05
58072;BME280;60383;46.626;18.866;2023-02-03T05:48:29;101249.53;;;1.34;78.01
58072;BME280;60383;46.626;18.866;2023-02-03T05:50:55;101268.19;;;1.56;77.59
58072;BME280;60383;46.626;18.866;2023-02-03T05:53:20;101263.56;;;1.75;76.51
58072;BME280;60383;46.626;18.866;2023-02-03T05:55:46;101272.22;;;1.65;77.37
58072;BME280;60383;46.626;18.866;2023-02-03T05:58:11;101264.84;;;1.68;76.98
58072;BME280;60383;46.626;18.866;2023-02-03T06:00:37;101269.53;;;1.65;77.43
58072;BME280;60383;46.626;18.866;2023-02-03T06:03:03;101265.50;;;1.56;77.54
58072;BME280;60383;46.626;18.866;2023-02-03T06:05:30;101261.28;;;1.68;77.35
58072;BME280;60383;46.626;18.866;2023-02-03T06:07:56;101266.03;;;1.80;77.27
58072;BME280;60383;46.626;18.866;2023-02-03T06:10:21;101264.44;;;1.58;77.87
58072;BME280;60383;46.626;18.866;2023-02-03T06:12:47;101260.66;;;1.80;77.67
58072;BME280;60383;46.626;18.866;2023-02-03T06:15:13;101256.34;;;1.94;76.93
58072;BME280;60383;46.626;18.866;2023-02-03T06:17:38;101261.63;;;2.13;76.16
58072;BME280;60383;46.626;18.866;2023-02-03T06:20:07;101264.59;;;2.08;75.98
58072;BME280;60383;46.626;18.866;2023-02-03T06:22:34;101278.28;;;2.21;76.08
58072;BME280;60383;46.626;18.866;2023-02-03T06:25:00;101276.00;;;2.13;76.30
58072;BME280;60383;46.626;18.866;2023-02-03T06:27:26;101274.03;;;1.99;76.46
58072;BME280;60383;46.626;18.866;2023-02-03T06:29:51;101278.19;;;1.89;77.06
58072;BME280;60383;46.626;18.866;2023-02-03T06:32:17;101278.91;;;1.92;77.08
58072;BME280;60383;46.626;18.866;2023-02-03T06:34:42;101280.19;;;1.85;76.99
58072;BME280;60383;46.626;18.866;2023-02-03T06:37:08;101292.88;;;1.83;77.71
58072;BME280;60383;46.626;18.866;2023-02-03T06:39:33;101292.34;;;1.77;77.83
58072;BME280;60383;46.626;18.866;2023-02-03T06:41:59;101287.66;;;1.80;77.65
58072;BME280;60383;46.626;18.866;2023-02-03T06:44:25;101280.41;;;1.81;78.07
58072;BME280;60383;46.626;18.866;2023-02-03T06:46:50;101287.41;;;1.85;78.03
58072;BME280;60383;46.626;18.866;2023-02-03T06:49:16;101294.63;;;1.84;77.90
58072;BME280;60383;46.626;18.866;2023-02-03T06:51:43;101302.66;;;1.86;77.73
58072;BME280;60383;46.626;18.866;2023-02-03T06:54:10;101312.13;;;1.95;77.56
58072;BME280;60383;46.626;18.866;2023-02-03T06:56:35;101306.53;;;1.98;77.40
58072;BME280;60383;46.626;18.866;2023-02-03T06:59:01;101316.69;;;2.10;76.69
58072;BME280;60383;46.626;18.866;2023-02-03T07:01:27;101318.31;;;1.97;77.04
58072;BME280;60383;46.626;18.866;2023-02-03T07:03:54;101334.47;;;1.98;77.41
58072;BME280;60383;46.626;18.866;2023-02-03T07:06:22;101333.75;;;1.95;77.66
58072;BME280;60383;46.626;18.866;2023-02-03T07:08:48;101329.75;;;2.19;76.86
58072;BME280;60383;46.626;18.866;2023-02-03T07:11:14;101325.13;;;2.21;76.72
58072;BME280;60383;46.626;18.866;2023-02-03T07:13:39;101332.59;;;2.16;76.78
58072;BME280;60383;46.626;18.866;2023-02-03T07:16:05;101329.03;;;2.33;76.02
58072;BME280;60383;46.626;18.866;2023-02-03T07:18:31;101336.59;;;2.60;74.86
58072;BME280;60383;46.626;18.866;2023-02-03T07:20:56;101334.91;;;2.58;74.98
58072;BME280;60383;46.626;18.866;2023-02-03T07:23:21;101336.50;;;2.62;75.41
58072;BME280;60383;46.626;18.866;2023-02-03T07:25:47;101336.03;;;2.53;76.04
58072;BME280;60383;46.626;18.866;2023-02-03T07:28:13;101337.53;;;2.59;76.36
58072;BME280;60383;46.626;18.866;2023-02-03T07:30:38;101332.63;;;2.50;76.14
58072;BME280;60383;46.626;18.866;2023-02-03T07:33:04;101326.34;;;2.49;76.41
58072;BME280;60383;46.626;18.866;2023-02-03T07:35:29;101325.34;;;2.34;76.85
58072;BME280;60383;46.626;18.866;2023-02-03T07:37:55;101323.06;;;2.27;76.60
58072;BME280;60383;46.626;18.866;2023-02-03T07:40:20;101324.84;;;2.44;76.55
58072;BME280;60383;46.626;18.866;2023-02-03T07:42:47;101310.19;;;2.48;76.14
58072;BME280;60383;46.626;18.866;2023-02-03T07:45:14;101310.78;;;2.37;76.03
58072;BME280;60383;46.626;18.866;2023-02-03T07:47:41;101318.13;;;2.35;76.26
58072;BME280;60383;46.626;18.866;2023-02-03T07:50:08;101317.28;;;2.50;75.95
58072;BME280;60383;46.626;18.866;2023-02-03T07:52:36;101325.56;;;2.47;75.64
58072;BME280;60383;46.626;18.866;2023-02-03T07:55:01;101314.59;;;2.50;75.70
58072;BME280;60383;46.626;18.866;2023-02-03T07:57:27;101308.56;;;2.61;74.68
58072;BME280;60383;46.626;18.866;2023-02-03T07:59:53;101310.69;;;2.72;73.79
58072;BME280;60383;46.626;18.866;2023-02-03T08:02:18;101318.19;;;2.83;73.69
58072;BME280;60383;46.626;18.866;2023-02-03T08:04:43;101316.78;;;2.76;73.61
58072;BME280;60383;46.626;18.866;2023-02-03T08:07:09;101323.81;;;2.96;73.31
58072;BME280;60383;46.626;18.866;2023-02-03T08:09:34;101314.53;;;3.00;73.27
58072;BME280;60383;46.626;18.866;2023-02-03T08:12:01;101322.31;;;2.90;73.55
58072;BME280;60383;46.626;18.866;2023-02-03T08:14:27;101326.16;;;2.70;74.10
58072;BME280;60383;46.626;18.866;2023-02-03T08:16:52;101330.31;;;2.76;74.39
58072;BME280;60383;46.626;18.866;2023-02-03T08:19:17;101331.97;;;2.78;74.05
58072;BME280;60383;46.626;18.866;2023-02-03T08:21:43;101331.81;;;2.81;74.45
58072;BME280;60383;46.626;18.866;2023-02-03T08:24:08;101341.84;;;2.79;74.93
58072;BME280;60383;46.626;18.866;2023-02-03T08:26:35;101345.91;;;2.88;74.72
58072;BME280;60383;46.626;18.866;2023-02-03T08:29:00;101343.91;;;2.92;76.12
58072;BME280;60383;46.626;18.866;2023-02-03T08:31:26;101347.69;;;2.71;77.40
58072;BME280;60383;46.626;18.866;2023-02-03T08:33:51;101355.97;;;2.68;79.00
58072;BME280;60383;46.626;18.866;2023-02-03T08:36:17;101358.59;;;2.70;79.23
58072;BME280;60383;46.626;18.866;2023-02-03T08:38:42;101350.88;;;2.62;81.30
58072;BME280;60383;46.626;18.866;2023-02-03T08:41:13;101359.25;;;2.58;82.03
58072;BME280;60383;46.626;18.866;2023-02-03T08:43:39;101364.22;;;2.49;83.17
58072;BME280;60383;46.626;18.866;2023-02-03T08:46:06;101362.13;;;2.54;84.17
58072;BME280;60383;46.626;18.866;2023-02-03T08:48:32;101367.50;;;2.38;84.42
58072;BME280;60383;46.626;18.866;2023-02-03T08:50:58;101367.25;;;2.43;84.73
58072;BME280;60383;46.626;18.866;2023-02-03T08:53:23;101366.88;;;2.33;85.29
58072;BME280;60383;46.626;18.866;2023-02-03T08:55:49;101369.56;;;2.33;85.48
58072;BME280;60383;46.626;18.866;2023-02-03T08:58:14;101369.41;;;2.36;85.72
58072;BME280;60383;46.626;18.866;2023-02-03T09:00:40;101366.59;;;2.38;85.70
58072;BME280;60383;46.626;18.866;2023-02-03T09:03:06;101367.75;;;1.99;86.64
58072;BME280;60383;46.626;18.866;2023-02-03T09:05:31;101366.47;;;1.88;87.86
58072;BME280;60383;46.626;18.866;2023-02-03T09:07:57;101361.53;;;1.79;89.18
58072;BME280;60383;46.626;18.866;2023-02-03T09:10:22;101364.25;;;1.79;89.82
58072;BME280;60383;46.626;18.866;2023-02-03T09:12:48;101356.31;;;1.94;89.67
58072;BME280;60383;46.626;18.866;2023-02-03T09:15:13;101341.91;;;1.93;90.03
58072;BME280;60383;46.626;18.866;2023-02-03T09:17:39;101345.25;;;1.98;89.85
58072;BME280;60383;46.626;18.866;2023-02-03T09:20:05;101335.16;;;2.02;89.91
58072;BME280;60383;46.626;18.866;2023-02-03T09:22:30;101333.50;;;1.82;91.05
58072;BME280;60383;46.626;18.866;2023-02-03T09:24:56;101328.31;;;2.30;88.87
58072;BME280;60383;46.626;18.866;2023-02-03T09:27:21;101331.50;;;2.20;88.97
58072;BME280;60383;46.626;18.866;2023-02-03T09:29:47;101329.97;;;2.15;90.08
58072;BME280;60383;46.626;18.866;2023-02-03T09:32:12;101330.34;;;2.24;89.98
58072;BME280;60383;46.626;18.866;2023-02-03T09:34:38;101322.19;;;2.26;90.14
58072;BME280;60383;46.626;18.866;2023-02-03T09:37:06;101321.16;;;2.29;89.48
58072;BME280;60383;46.626;18.866;2023-02-03T09:39:31;101321.31;;;2.26;90.39
58072;BME280;60383;46.626;18.866;2023-02-03T09:42:21;101320.03;;;2.33;89.91
58072;BME280;60383;46.626;18.866;2023-02-03T09:45:20;101306.75;;;2.28;90.06
58072;BME280;60383;46.626;18.866;2023-02-03T09:47:51;101299.91;;;2.21;90.77
58072;BME280;60383;46.626;18.866;2023-02-03T09:50:22;101299.69;;;2.26;90.21
58072;BME280;60383;46.626;18.866;2023-02-03T09:52:51;101292.84;;;2.18;90.61
58072;BME280;60383;46.626;18.866;2023-02-03T09:55:38;101289.19;;;2.19;91.18
58072;BME280;60383;46.626;18.866;2023-02-03T10:00:43;101284.06;;;2.31;92.21
58072;BME280;60383;46.626;18.866;2023-02-03T10:09:12;101266.91;;;2.32;92.23
58072;BME280;60383;46.626;18.866;2023-02-03T10:19:12;101231.50;;;2.36;93.74
58072;BME280;60383;46.626;18.866;2023-02-03T10:21:44;101228.91;;;2.35;93.22
58072;BME280;60383;46.626;18.866;2023-02-03T10:24:31;101222.47;;;2.53;92.37
58072;BME280;60383;46.626;18.866;2023-02-03T10:27:02;101219.50;;;2.42;92.82
58072;BME280;60383;46.626;18.866;2023-02-03T10:29:43;101221.66;;;2.35;93.53
58072;BME280;60383;46.626;18.866;2023-02-03T10:32:12;101217.75;;;2.41;94.24
58072;BME280;60383;46.626;18.866;2023-02-03T10:34:38;101210.06;;;2.49;93.35
58072;BME280;60383;46.626;18.866;2023-02-03T10:37:16;101203.06;;;2.45;93.65
58072;BME280;60383;46.626;18.866;2023-02-03T10:39:47;101199.16;;;2.51;93.29
58072;BME280;60383;46.626;18.866;2023-02-03T10:42:13;101182.84;;;2.52;93.18
58072;BME280;60383;46.626;18.866;2023-02-03T10:44:42;101175.44;;;2.56;93.46
58072;BME280;60383;46.626;18.866;2023-02-03T10:47:23;101174.66;;;2.54;92.70
58072;BME280;60383;46.626;18.866;2023-02-03T10:49:50;101178.03;;;2.58;92.88
58072;BME280;60383;46.626;18.866;2023-02-03T10:52:29;101162.81;;;2.57;93.82
58072;BME280;60383;46.626;18.866;2023-02-03T10:54:56;101157.66;;;2.52;93.85
58072;BME280;60383;46.626;18.866;2023-02-03T10:57:24;101154.06;;;2.51;94.97
58072;BME280;60383;46.626;18.866;2023-02-03T10:59:50;101155.28;;;2.46;94.13
58072;BME280;60383;46.626;18.866;2023-02-03T11:02:22;101150.94;;;2.43;94.33
58072;BME280;60383;46.626;18.866;2023-02-03T11:05:08;101140.81;;;2.47;94.95
58072;BME280;60383;46.626;18.866;2023-02-03T11:07:34;101134.38;;;2.49;94.12
58072;BME280;60383;46.626;18.866;2023-02-03T11:09:59;101133.03;;;2.40;93.92
58072;BME280;60383;46.626;18.866;2023-02-03T11:12:25;101126.66;;;2.42;94.08
58072;BME280;60383;46.626;18.866;2023-02-03T11:14:52;101113.69;;;2.48;94.08
58072;BME280;60383;46.626;18.866;2023-02-03T11:17:22;101110.72;;;2.53;94.64
58072;BME280;60383;46.626;18.866;2023-02-03T11:19:50;101100.31;;;2.61;94.46
58072;BME280;60383;46.626;18.866;2023-02-03T11:22:35;101090.38;;;2.62;94.75
58072;BME280;60383;46.626;18.866;2023-02-03T11:25:03;101078.25;;;2.69;95.57
58072;BME280;60383;46.626;18.866;2023-02-03T11:27:31;101077.66;;;2.78;96.81
58072;BME280;60383;46.626;18.866;2023-02-03T11:30:18;101082.00;;;2.97;95.07
58072;BME280;60383;46.626;18.866;2023-02-03T11:32:46;101075.25;;;3.04;95.66
58072;BME280;60383;46.626;18.866;2023-02-03T11:35:16;101070.28;;;2.96;94.09
58072;BME280;60383;46.626;18.866;2023-02-03T11:37:47;101062.78;;;3.01;95.04
58072;BME280;60383;46.626;18.866;2023-02-03T11:42:44;101058.19;;;3.32;95.79
58072;BME280;60383;46.626;18.866;2023-02-03T11:47:46;101047.06;;;3.23;95.07
58072;BME280;60383;46.626;18.866;2023-02-03T12:01:56;101007.81;;;3.44;93.28
58072;BME280;60383;46.626;18.866;2023-02-03T12:07:31;100981.19;;;3.36;94.15
58072;BME280;60383;46.626;18.866;2023-02-03T12:13:43;100959.22;;;3.56;95.98
58072;BME280;60383;46.626;18.866;2023-02-03T12:16:20;100941.22;;;3.55;95.59
58072;BME280;60383;46.626;18.866;2023-02-03T12:21:43;100925.06;;;3.67;95.25
58072;BME280;60383;46.626;18.866;2023-02-03T12:27:00;100909.31;;;3.60;94.79
58072;BME280;60383;46.626;18.866;2023-02-03T12:29:48;100906.66;;;3.73;94.38
58072;BME280;60383;46.626;18.866;2023-02-03T12:35:03;100896.06;;;3.82;94.17
58072;BME280;60383;46.626;18.866;2023-02-03T12:40:42;100887.09;;;3.82;95.85
58072;BME280;60383;46.626;18.866;2023-02-03T12:45:39;100882.53;;;3.82;95.79
58072;BME280;60383;46.626;18.866;2023-02-03T12:48:18;100876.69;;;3.89;95.69
58072;BME280;60383;46.626;18.866;2023-02-03T12:50:54;100865.97;;;3.87;95.94
58072;BME280;60383;46.626;18.866;2023-02-03T12:53:27;100858.31;;;3.94;96.36
58072;BME280;60383;46.626;18.866;2023-02-03T12:56:02;100848.13;;;3.97;94.95
58072;BME280;60383;46.626;18.866;2023-02-03T12:58:46;100836.41;;;3.97;94.56
58072;BME280;60383;46.626;18.866;2023-02-03T13:01:25;100822.22;;;4.06;94.70
58072;BME280;60383;46.626;18.866;2023-02-03T13:03:59;100810.06;;;4.12;95.49
58072;BME280;60383;46.626;18.866;2023-02-03T13:09:37;100778.09;;;4.04;95.27
58072;BME280;60383;46.626;18.866;2023-02-03T13:12:27;100787.06;;;3.92;95.86
58072;BME280;60383;46.626;18.866;2023-02-03T13:20:11;100765.84;;;4.11;95.94
58072;BME280;60383;46.626;18.866;2023-02-03T13:22:38;100762.03;;;4.14;96.05
58072;BME280;60383;46.626;18.866;2023-02-03T13:41:18;100706.63;;;4.31;95.50
58072;BME280;60383;46.626;18.866;2023-02-03T13:43:48;100709.66;;;4.26;95.20
58072;BME280;60383;46.626;18.866;2023-02-03T13:46:24;100697.81;;;4.40;95.12
58072;BME280;60383;46.626;18.866;2023-02-03T13:48:52;100692.19;;;4.30;95.33
58072;BME280;60383;46.626;18.866;2023-02-03T13:51:23;100685.03;;;4.42;94.85
58072;BME280;60383;46.626;18.866;2023-02-03T13:53:51;100686.31;;;4.50;94.53
58072;BME280;60383;46.626;18.866;2023-02-03T13:56:24;100668.94;;;4.52;94.17
58072;BME280;60383;46.626;18.866;2023-02-03T13:59:26;100670.50;;;4.68;92.59
58072;BME280;60383;46.626;18.866;2023-02-03T14:04:53;100666.69;;;4.70;92.94
58072;BME280;60383;46.626;18.866;2023-02-03T14:07:35;100655.28;;;4.78;91.87
58072;BME280;60383;46.626;18.866;2023-02-03T14:18:04;100635.88;;;4.95;89.63
58072;BME280;60383;46.626;18.866;2023-02-03T14:20:37;100633.06;;;4.97;88.13
58072;BME280;60383;46.626;18.866;2023-02-03T14:25:29;100622.59;;;5.04;85.90
58072;BME280;60383;46.626;18.866;2023-02-03T14:28:09;100621.00;;;5.01;85.57
58072;BME280;60383;46.626;18.866;2023-02-03T14:36:48;100622.00;;;5.11;83.15
58072;BME280;60383;46.626;18.866;2023-02-03T14:58:19;100596.13;;;5.19;84.61
58072;BME280;60383;46.626;18.866;2023-02-03T15:00:47;100585.72;;;5.12;84.73
58072;BME280;60383;46.626;18.866;2023-02-03T15:03:16;100585.16;;;5.20;83.64
58072;BME280;60383;46.626;18.866;2023-02-03T15:05:51;100582.03;;;5.14;84.69
58072;BME280;60383;46.626;18.866;2023-02-03T15:10:58;100569.84;;;5.19;85.38
58072;BME280;60383;46.626;18.866;2023-02-03T15:13:24;100575.41;;;5.18;85.45
58072;BME280;60383;46.626;18.866;2023-02-03T15:15:55;100567.09;;;5.08;86.22
58072;BME280;60383;46.626;18.866;2023-02-03T15:18:28;100566.63;;;5.14;85.93